Time;durP1;ratioP1;P1;durP2;ratioP2;P2;SDS_P1;SDS_P2;PMS_P1;PMS_P2;Temp;Humidity;BMP_temperature;BMP_pressure;BME280_temperature;BME280_humidity;BME280_pressure;Samples;Min_cycle;Max_cycle;Signal;HPM_P1;HPM_P2
2022/05/18 00:01:59;;;;;;;;;;;25.40;44.00;;;;;;1512425;77;679;-64
2022/05/18 00:04:00;;;;;;;;;;;25.30;44.00;;;;;;1514752;77;1683;-65
2022/05/18 00:06:02;;;;;;;;;;;25.30;44.00;;;;;;1509281;77;647;-64
2022/05/18 00:08:05;;;;;;;;;;;25.30;44.10;;;;;;1511928;77;1944;-64
2022/05/18 00:10:07;;;;;;;;;;;25.30;44.10;;;;;;1517014;76;1130;-64
2022/05/18 00:12:09;;;;;;;;;;;25.30;44.10;;;;;;1519548;77;691;-64
2022/05/18 00:14:12;;;;;;;;;;;25.30;44.20;;;;;;1513509;77;814;-64
2022/05/18 00:16:14;;;;;;;;;;;25.30;44.20;;;;;;1517926;77;701;-65
2022/05/18 00:18:16;;;;;;;;;;;25.30;44.20;;;;;;1514893;77;677;-64
2022/05/18 00:20:18;;;;;;;;;;;25.40;44.20;;;;;;1522903;77;1118;-64
2022/05/18 00:22:20;;;;;;;;;;;25.30;44.20;;;;;;1510750;77;1533;-64
2022/05/18 00:24:22;;;;;;;;;;;25.30;44.20;;;;;;1513740;77;766;-64
2022/05/18 00:26:24;;;;;;;;;;;25.30;44.20;;;;;;1512657;77;656;-65
2022/05/18 00:28:26;;;;;;;;;;;25.30;44.20;;;;;;1513034;77;1922;-64
2022/05/18 00:30:28;;;;;;;;;;;25.30;44.20;;;;;;1509819;77;1165;-64
2022/05/18 00:32:30;;;;;;;;;;;25.30;44.20;;;;;;1511229;77;677;-64
2022/05/18 00:34:32;;;;;;;;;;;25.40;44.30;;;;;;1508180;77;669;-64
2022/05/18 00:36:34;;;;;;;;;;;25.30;44.20;;;;;;1509912;77;1584;-65
2022/05/18 00:38:36;;;;;;;;;;;25.30;44.20;;;;;;1516794;77;683;-66
2022/05/18 00:40:38;;;;;;;;;;;25.30;44.40;;;;;;1522182;75;1177;-67
2022/05/18 00:42:40;;;;;;;;;;;25.40;44.30;;;;;;1510674;77;659;-67
2022/05/18 00:44:42;;;;;;;;;;;25.40;44.30;;;;;;1508152;77;646;-67
2022/05/18 00:46:44;;;;;;;;;;;25.30;44.30;;;;;;1510937;77;701;-67
2022/05/18 00:48:46;;;;;;;;;;;25.30;44.30;;;;;;1514723;77;1930;-66
2022/05/18 00:50:48;;;;;;;;;;;25.30;44.20;;;;;;1514192;77;1587;-67
2022/05/18 00:52:51;;;;;;;;;;;25.40;44.30;;;;;;1513692;77;666;-66
2022/05/18 00:54:53;;;;;;;;;;;25.30;44.30;;;;;;1513469;77;757;-68
2022/05/18 00:57:03;;;;;;;;;;;25.40;44.20;;;;;;1521418;77;652;-67
2022/05/18 00:59:09;;;;;;;;;;;25.30;44.20;;;;;;1524856;77;707;-66
2022/05/18 01:01:11;;;;;;;;;;;25.30;44.20;;;;;;1518550;77;1546;-66
2022/05/18 01:03:20;;;;;;;;;;;25.40;44.20;;;;;;1528959;77;668;-66
2022/05/18 01:05:24;;;;;;;;;;;25.40;44.20;;;;;;1516476;77;1664;-68
2022/05/18 01:07:29;;;;;;;;;;;25.30;44.20;;;;;;1520981;77;661;-66
2022/05/18 01:09:35;;;;;;;;;;;25.40;44.20;;;;;;1511713;77;1934;-64
2022/05/18 01:11:42;;;;;;;;;;;25.30;44.20;;;;;;1532680;77;1098;-63
2022/05/18 01:13:42;;;;;;;;;;;25.40;44.20;;;;;;1521777;77;840;-63
2022/05/18 01:15:44;;;;;;;;;;;25.30;44.20;;;;;;1527506;77;725;-66
2022/05/18 01:17:47;;;;;;;;;;;25.30;44.20;;;;;;1530225;77;1558;-64
2022/05/18 01:19:50;;;;;;;;;;;25.30;44.20;;;;;;1515609;77;1169;-65
2022/05/18 01:21:56;;;;;;;;;;;25.30;44.20;;;;;;1532905;77;624;-65
2022/05/18 01:24:04;;;;;;;;;;;25.30;44.30;;;;;;1519818;77;1069;-65
2022/05/18 01:26:07;;;;;;;;;;;25.30;44.30;;;;;;1522000;77;732;-65
2022/05/18 01:28:09;;;;;;;;;;;25.30;44.20;;;;;;1526537;77;1948;-64
2022/05/18 01:30:11;;;;;;;;;;;25.30;44.20;;;;;;1523857;77;1111;-65
2022/05/18 01:32:14;;;;;;;;;;;25.30;44.20;;;;;;1514839;77;1571;-64
2022/05/18 01:34:17;;;;;;;;;;;25.30;44.30;;;;;;1521459;77;693;-65
2022/05/18 01:36:19;;;;;;;;;;;25.30;44.30;;;;;;1512984;77;704;-64
2022/05/18 01:38:21;;;;;;;;;;;25.30;44.20;;;;;;1517623;77;676;-65
2022/05/18 01:40:39;;;;;;;;;;;25.30;44.20;;;;;;1529589;77;1198;-64
2022/05/18 01:42:43;;;;;;;;;;;25.40;44.20;;;;;;1523768;77;751;-64
2022/05/18 01:44:45;;;;;;;;;;;25.30;44.20;;;;;;1535608;77;1113;-64
2022/05/18 01:46:48;;;;;;;;;;;25.30;44.20;;;;;;1526746;77;1541;-64
2022/05/18 01:48:50;;;;;;;;;;;25.30;44.20;;;;;;1518910;77;1929;-64
2022/05/18 01:50:52;;;;;;;;;;;25.20;44.20;;;;;;1528481;77;1157;-64
2022/05/18 01:52:54;;;;;;;;;;;25.30;44.20;;;;;;1528341;77;785;-64
2022/05/18 01:54:56;;;;;;;;;;;25.30;44.20;;;;;;1525973;77;656;-64
2022/05/18 01:56:58;;;;;;;;;;;25.30;44.20;;;;;;1513132;77;782;-64
2022/05/18 01:59:00;;;;;;;;;;;25.20;44.20;;;;;;1521129;77;675;-64
2022/05/18 02:01:02;;;;;;;;;;;25.20;44.10;;;;;;1515462;77;1547;-65
2022/05/18 02:03:04;;;;;;;;;;;25.20;44.10;;;;;;1520472;77;648;-64
2022/05/18 02:05:06;;;;;;;;;;;25.20;44.20;;;;;;1518033;77;665;-66
2022/05/18 02:07:08;;;;;;;;;;;25.20;44.20;;;;;;1516170;77;646;-64
2022/05/18 02:09:10;;;;;;;;;;;25.20;44.20;;;;;;1513146;77;1934;-64
2022/05/18 02:11:17;;;;;;;;;;;25.20;44.10;;;;;;1522285;77;1134;-64
2022/05/18 02:13:20;;;;;;;;;;;25.30;44.10;;;;;;1502790;78;620;-64
2022/05/18 02:15:27;;;;;;;;;;;25.30;44.10;;;;;;1514427;77;1595;-65
2022/05/18 02:17:26;;;;;;;;;;;25.20;44.00;;;;;;1512228;77;1553;-65
2022/05/18 02:19:27;;;;;;;;;;;25.10;44.00;;;;;;1519135;77;699;-64
2022/05/18 02:21:29;;;;;;;;;;;25.10;44.00;;;;;;1558506;71;2092;-65
2022/05/18 02:23:31;;;;;;;;;;;25.20;44.10;;;;;;1605216;72;697;-64
2022/05/18 02:25:33;;;;;;;;;;;25.20;44.10;;;;;;1603426;72;641;-63
2022/05/18 02:27:35;;;;;;;;;;;25.10;44.00;;;;;;1596715;72;622;-64
2022/05/18 02:29:37;;;;;;;;;;;25.10;44.10;;;;;;1597505;72;1924;-65
2022/05/18 02:31:39;;;;;;;;;;;25.10;44.30;;;;;;1585868;72;1139;-65
2022/05/18 02:33:41;;;;;;;;;;;25.10;44.30;;;;;;1583926;74;735;-64
2022/05/18 02:35:43;;;;;;;;;;;25.20;44.40;;;;;;1586876;74;688;-65
2022/05/18 02:37:44;;;;;;;;;;;25.20;44.40;;;;;;1584414;74;769;-64
2022/05/18 02:39:46;;;;;;;;;;;25.20;44.40;;;;;;1582692;74;676;-65
2022/05/18 02:41:49;;;;;;;;;;;25.20;44.40;;;;;;1580322;74;1137;-64
2022/05/18 02:43:52;;;;;;;;;;;25.10;44.40;;;;;;1588536;74;1517;-64
2022/05/18 02:46:01;;;;;;;;;;;25.10;44.30;;;;;;1583698;74;710;-65
2022/05/18 02:48:03;;;;;;;;;;;25.10;44.40;;;;;;1580347;74;699;-64
2022/05/18 02:50:05;;;;;;;;;;;25.10;44.40;;;;;;1580142;74;1940;-65
2022/05/18 02:52:07;;;;;;;;;;;25.10;44.30;;;;;;1577571;74;1100;-65
2022/05/18 02:56:29;;;;;;;;;;;25.20;44.30;;;;;;1579068;74;1597;-67
2022/05/18 02:58:31;;;;;;;;;;;25.20;44.20;;;;;;1587894;74;671;-65
2022/05/18 03:00:34;;;;;;;;;;;25.10;44.20;;;;;;1582107;74;1083;-65
2022/05/18 03:02:35;;;;;;;;;;;25.10;44.20;;;;;;1583918;74;737;-65
2022/05/18 03:04:37;;;;;;;;;;;25.20;44.20;;;;;;1569378;74;670;-68
2022/05/18 03:06:39;;;;;;;;;;;25.20;44.20;;;;;;1572671;74;699;-65
2022/05/18 03:08:41;;;;;;;;;;;25.30;44.30;;;;;;1585518;74;752;-66
2022/05/18 03:10:43;;;;;;;;;;;25.30;44.20;;;;;;1559874;74;1504;-65
2022/05/18 03:12:45;;;;;;;;;;;25.20;44.10;;;;;;1576860;74;644;-66
2022/05/18 03:14:47;;;;;;;;;;;25.30;44.20;;;;;;1571348;74;705;-66
2022/05/18 03:16:49;;;;;;;;;;;25.30;44.30;;;;;;1577523;74;751;-69
2022/05/18 03:18:51;;;;;;;;;;;25.20;44.20;;;;;;1582679;74;686;-65
2022/05/18 03:25:33;;;;;;;;;;;25.30;44.00;;;;;;1575808;74;1654;-65
2022/05/18 03:27:35;;;;;;;;;;;25.30;44.00;;;;;;1572218;74;679;-65
2022/05/18 03:29:37;;;;;;;;;;;25.30;44.20;;;;;;1585796;74;1969;-67
2022/05/18 03:31:39;;;;;;;;;;;25.30;44.00;;;;;;1582967;72;1250;-66
2022/05/18 03:33:41;;;;;;;;;;;25.30;44.10;;;;;;1578703;74;678;-67
2022/05/18 03:35:42;;;;;;;;;;;25.20;44.10;;;;;;1587626;74;748;-66
2022/05/18 03:37:44;;;;;;;;;;;25.30;44.20;;;;;;1585546;74;679;-67
2022/05/18 03:39:46;;;;;;;;;;;25.30;44.20;;;;;;1577854;74;1597;-67
2022/05/18 03:41:48;;;;;;;;;;;25.20;44.10;;;;;;1586392;74;1132;-67
2022/05/18 03:43:50;;;;;;;;;;;25.30;44.00;;;;;;1592194;74;640;-67
2022/05/18 03:45:52;;;;;;;;;;;25.30;44.00;;;;;;1583572;74;754;-66
2022/05/18 03:47:55;;;;;;;;;;;25.20;44.10;;;;;;1591277;74;659;-67
2022/05/18 03:49:56;;;;;;;;;;;25.20;44.20;;;;;;1587777;74;1910;-66
2022/05/18 03:51:58;;;;;;;;;;;25.20;44.20;;;;;;1581049;74;1132;-67
2022/05/18 03:54:00;;;;;;;;;;;25.10;44.20;;;;;;1576921;74;1472;-66
2022/05/18 03:56:02;;;;;;;;;;;25.20;44.20;;;;;;1588300;74;740;-68
2022/05/18 03:58:04;;;;;;;;;;;25.20;44.40;;;;;;1587620;74;643;-68
2022/05/18 04:00:06;;;;;;;;;;;25.10;44.30;;;;;;1585527;74;679;-67
2022/05/18 04:02:08;;;;;;;;;;;25.20;44.30;;;;;;1570637;74;1111;-67
2022/05/18 04:04:10;;;;;;;;;;;25.10;44.30;;;;;;1577301;74;735;-66
2022/05/18 04:06:12;;;;;;;;;;;25.10;44.40;;;;;;1584792;74;661;-67
2022/05/18 04:08:14;;;;;;;;;;;25.10;44.50;;;;;;1566402;74;1144;-64
2022/05/18 04:10:16;;;;;;;;;;;25.20;44.50;;;;;;1567852;74;1943;-64
2022/05/18 04:12:18;;;;;;;;;;;25.10;44.40;;;;;;1577662;74;1166;-63
2022/05/18 04:14:20;;;;;;;;;;;25.10;44.40;;;;;;1577910;74;694;-63
2022/05/18 04:16:22;;;;;;;;;;;25.10;44.40;;;;;;1583574;74;771;-62
2022/05/18 04:18:24;;;;;;;;;;;25.10;44.40;;;;;;1569165;74;668;-62
2022/05/18 04:20:26;;;;;;;;;;;25.10;44.30;;;;;;1577496;74;1624;-63
2022/05/18 04:22:28;;;;;;;;;;;25.20;44.40;;;;;;1579921;74;707;-67
2022/05/18 04:24:29;;;;;;;;;;;25.10;44.40;;;;;;1574622;74;717;-67
2022/05/18 04:26:31;;;;;;;;;;;25.20;44.40;;;;;;1578539;74;676;-67
2022/05/18 04:28:33;;;;;;;;;;;25.20;44.40;;;;;;1569791;74;743;-67
2022/05/18 04:30:35;;;;;;;;;;;25.10;44.40;;;;;;1581521;74;1946;-67
2022/05/18 04:32:40;;;;;;;;;;;25.10;44.40;;;;;;1572128;74;670;-67
2022/05/18 04:34:44;;;;;;;;;;;25.10;44.40;;;;;;1580215;74;1577;-67
2022/05/18 04:36:45;;;;;;;;;;;25.10;44.40;;;;;;1573316;73;1595;-66
2022/05/18 04:38:47;;;;;;;;;;;25.20;44.40;;;;;;1571522;74;656;-66
2022/05/18 04:40:49;;;;;;;;;;;25.10;44.40;;;;;;1569971;74;1192;-65
2022/05/18 04:42:51;;;;;;;;;;;25.10;44.40;;;;;;1581073;74;671;-65
2022/05/18 04:44:53;;;;;;;;;;;25.20;44.40;;;;;;1577828;74;811;-65
2022/05/18 04:46:58;;;;;;;;;;;25.10;44.30;;;;;;1583286;74;674;-64
2022/05/18 04:49:00;;;;;;;;;;;25.10;44.30;;;;;;1572953;74;1560;-64
2022/05/18 04:51:05;;;;;;;;;;;25.10;44.30;;;;;;1580010;74;1903;-65
2022/05/18 04:53:05;;;;;;;;;;;25.20;44.30;;;;;;1568189;74;1680;-65
2022/05/18 04:55:07;;;;;;;;;;;25.10;44.30;;;;;;1574814;74;1233;-64
2022/05/18 04:57:09;;;;;;;;;;;25.10;44.30;;;;;;1573311;74;666;-66
2022/05/18 04:59:12;;;;;;;;;;;25.10;44.30;;;;;;1571956;74;587;-66
2022/05/18 05:01:14;;;;;;;;;;;25.10;44.30;;;;;;1579146;74;1159;-67
2022/05/18 05:03:16;;;;;;;;;;;25.10;44.40;;;;;;1573633;74;1582;-67
2022/05/18 05:05:18;;;;;;;;;;;25.10;44.50;;;;;;1572777;74;675;-66
2022/05/18 05:07:20;;;;;;;;;;;25.10;44.40;;;;;;1576834;74;676;-64
2022/05/18 05:09:24;;;;;;;;;;;25.10;44.40;;;;;;1574890;74;752;-66
2022/05/18 05:11:25;;;;;;;;;;;25.10;44.40;;;;;;1572225;74;1908;-66
2022/05/18 05:13:27;;;;;;;;;;;25.20;44.40;;;;;;1571120;74;665;-65
2022/05/18 05:15:30;;;;;;;;;;;25.10;44.40;;;;;;1572384;74;705;-66
2022/05/18 05:17:32;;;;;;;;;;;25.10;44.40;;;;;;1572567;74;1570;-67
2022/05/18 05:19:35;;;;;;;;;;;25.10;44.40;;;;;;1580017;74;632;-65
2022/05/18 05:21:42;;;;;;;;;;;25.20;44.40;;;;;;1579008;74;1112;-65
2022/05/18 05:23:40;;;;;;;;;;;25.20;44.30;;;;;;1578412;74;1662;-65
2022/05/18 05:25:42;;;;;;;;;;;25.20;44.30;;;;;;1575553;74;675;-65
2022/05/18 05:27:44;;;;;;;;;;;25.20;44.40;;;;;;1579031;74;776;-65
2022/05/18 05:29:46;;;;;;;;;;;25.10;44.30;;;;;;1578636;74;1945;-64
2022/05/18 05:31:48;;;;;;;;;;;25.10;44.40;;;;;;1578742;74;1607;-65
2022/05/18 05:33:50;;;;;;;;;;;25.10;44.30;;;;;;1563322;74;682;-65
2022/05/18 05:35:52;;;;;;;;;;;25.10;44.30;;;;;;1579893;74;755;-64
2022/05/18 05:37:54;;;;;;;;;;;25.10;44.30;;;;;;1575397;74;670;-63
2022/05/18 05:39:56;;;;;;;;;;;25.00;44.30;;;;;;1575214;74;641;-63
2022/05/18 05:41:57;;;;;;;;;;;25.00;44.30;;;;;;1571692;74;1138;-63
2022/05/18 05:43:59;;;;;;;;;;;25.10;44.30;;;;;;1578551;73;618;-64
2022/05/18 05:46:06;;;;;;;;;;;25.00;44.30;;;;;;1578712;74;1528;-63
2022/05/18 05:48:08;;;;;;;;;;;25.00;44.20;;;;;;1573643;74;640;-63
2022/05/18 05:50:10;;;;;;;;;;;25.00;44.20;;;;;;1578795;74;1927;-62
2022/05/18 05:52:12;;;;;;;;;;;25.00;44.30;;;;;;1574705;74;1106;-62
2022/05/18 05:54:13;;;;;;;;;;;25.00;44.20;;;;;;1572234;74;761;-63
2022/05/18 05:56:15;;;;;;;;;;;25.00;44.20;;;;;;1589457;74;610;-63
2022/05/18 05:58:17;;;;;;;;;;;25.00;44.20;;;;;;1581647;74;718;-62
2022/05/18 06:00:20;;;;;;;;;;;24.90;44.20;;;;;;1575167;74;1662;-63
2022/05/18 06:02:22;;;;;;;;;;;24.90;44.20;;;;;;1578942;74;765;-64
2022/05/18 06:04:23;;;;;;;;;;;25.00;44.20;;;;;;1564528;74;651;-64
2022/05/18 06:06:25;;;;;;;;;;;25.00;44.20;;;;;;1579981;74;689;-68
2022/05/18 06:08:27;;;;;;;;;;;25.00;44.20;;;;;;1583468;74;661;-64
2022/05/18 06:10:29;;;;;;;;;;;25.00;44.10;;;;;;1582332;72;2024;-64
2022/05/18 06:12:31;;;;;;;;;;;25.00;44.20;;;;;;1573459;74;655;-64
2022/05/18 06:14:33;;;;;;;;;;;25.00;44.20;;;;;;1571530;74;1604;-64
2022/05/18 06:16:35;;;;;;;;;;;25.00;44.10;;;;;;1582741;74;712;-64
2022/05/18 06:18:38;;;;;;;;;;;25.00;44.10;;;;;;1581249;74;698;-64
2022/05/18 06:20:40;;;;;;;;;;;25.00;44.10;;;;;;1587318;74;1151;-64
2022/05/18 06:22:42;;;;;;;;;;;24.90;44.10;;;;;;1569955;74;691;-65
2022/05/18 06:24:47;;;;;;;;;;;24.90;44.00;;;;;;1580968;74;717;-65
2022/05/18 06:26:47;;;;;;;;;;;25.00;44.10;;;;;;1576472;74;1647;-64
2022/05/18 06:28:49;;;;;;;;;;;24.90;44.10;;;;;;1577130;74;1694;-64
2022/05/18 06:30:51;;;;;;;;;;;24.90;44.10;;;;;;1569536;74;1936;-64
2022/05/18 06:32:53;;;;;;;;;;;25.00;44.10;;;;;;1578187;74;790;-64
2022/05/18 06:34:55;;;;;;;;;;;24.90;44.10;;;;;;1576435;74;686;-64
2022/05/18 06:36:57;;;;;;;;;;;24.90;44.00;;;;;;1571664;74;675;-64
2022/05/18 06:38:59;;;;;;;;;;;24.90;44.10;;;;;;1581702;74;667;-64
2022/05/18 06:43:20;;;;;;;;;;;25.00;44.00;;;;;;1579277;74;669;-64
2022/05/18 06:45:22;;;;;;;;;;;24.90;44.00;;;;;;1581319;74;648;-64
2022/05/18 06:47:24;;;;;;;;;;;25.00;43.90;;;;;;1575916;74;686;-64
2022/05/18 06:49:30;;;;;;;;;;;25.00;43.90;;;;;;1584792;74;647;-64
2022/05/18 06:51:30;;;;;;;;;;;25.10;43.80;;;;;;1575117;74;1910;-64
2022/05/18 06:53:32;;;;;;;;;;;25.00;43.80;;;;;;1568966;74;755;-64
2022/05/18 06:55:34;;;;;;;;;;;25.00;43.80;;;;;;1574089;74;1337;-65
2022/05/18 06:57:36;;;;;;;;;;;25.00;43.70;;;;;;1579880;74;699;-64
2022/05/18 06:59:38;;;;;;;;;;;25.00;43.80;;;;;;1568110;74;705;-64
2022/05/18 07:01:40;;;;;;;;;;;25.00;43.80;;;;;;1576565;74;1153;-63
2022/05/18 07:03:42;;;;;;;;;;;25.00;43.80;;;;;;1580289;74;659;-64
2022/05/18 07:05:44;;;;;;;;;;;24.90;43.80;;;;;;1581277;74;649;-64
2022/05/18 07:07:46;;;;;;;;;;;25.00;43.80;;;;;;1578200;74;725;-64
2022/05/18 07:09:48;;;;;;;;;;;25.00;43.80;;;;;;1573040;74;1610;-64
2022/05/18 07:11:50;;;;;;;;;;;25.00;43.80;;;;;;1571405;74;1951;-64
2022/05/18 07:13:53;;;;;;;;;;;25.00;43.80;;;;;;1569566;73;813;-63
2022/05/18 07:15:55;;;;;;;;;;;25.00;43.80;;;;;;1565081;74;686;-64
2022/05/18 07:17:57;;;;;;;;;;;25.10;43.80;;;;;;1578691;74;590;-64
2022/05/18 07:19:59;;;;;;;;;;;25.00;43.70;;;;;;1577927;74;676;-64
2022/05/18 07:22:01;;;;;;;;;;;25.00;43.70;;;;;;1566870;74;1131;-63
2022/05/18 07:24:03;;;;;;;;;;;25.10;43.70;;;;;;1567381;74;1587;-64
2022/05/18 07:26:05;;;;;;;;;;;25.10;43.60;;;;;;1568667;74;674;-64
2022/05/18 07:28:06;;;;;;;;;;;25.00;43.60;;;;;;1576509;74;763;-67
2022/05/18 07:30:09;;;;;;;;;;;25.00;43.60;;;;;;1575455;74;766;-65
2022/05/18 07:32:13;;;;;;;;;;;25.10;43.70;;;;;;1578409;74;1965;-64
2022/05/18 07:34:15;;;;;;;;;;;25.10;43.60;;;;;;1569277;74;847;-65
2022/05/18 07:36:18;;;;;;;;;;;25.10;43.60;;;;;;1569957;74;681;-64
2022/05/18 07:38:20;;;;;;;;;;;25.10;43.70;;;;;;1575035;74;1516;-64
2022/05/18 07:40:22;;;;;;;;;;;25.10;43.70;;;;;;1575588;74;1168;-64
2022/05/18 07:42:24;;;;;;;;;;;25.20;43.90;;;;;;1575058;74;739;-64
2022/05/18 07:44:26;;;;;;;;;;;25.20;43.90;;;;;;1571853;74;761;-64
2022/05/18 07:46:28;;;;;;;;;;;25.20;44.00;;;;;;1564829;74;745;-64
2022/05/18 07:48:30;;;;;;;;;;;25.20;44.00;;;;;;1569637;74;749;-64
2022/05/18 07:50:32;;;;;;;;;;;25.30;44.00;;;;;;1573099;74;1917;-63
2022/05/18 07:52:34;;;;;;;;;;;25.40;44.00;;;;;;1570507;74;1614;-64
2022/05/18 07:54:36;;;;;;;;;;;25.30;44.10;;;;;;1573099;74;736;-64
2022/05/18 07:56:38;;;;;;;;;;;25.30;44.20;;;;;;1582277;74;686;-64
2022/05/18 07:58:40;;;;;;;;;;;25.30;44.20;;;;;;1596561;74;683;-63
2022/05/18 08:00:42;;;;;;;;;;;25.40;44.20;;;;;;1596549;74;1218;-64
2022/05/18 08:02:44;;;;;;;;;;;25.30;44.30;;;;;;1583308;74;695;-64
2022/05/18 08:04:46;;;;;;;;;;;25.30;44.40;;;;;;1578274;74;771;-64
2022/05/18 08:06:47;;;;;;;;;;;25.30;44.20;;;;;;1583682;74;1409;-65
2022/05/18 08:08:49;;;;;;;;;;;25.30;44.40;;;;;;1580387;74;833;-64
2022/05/18 08:15:31;;;;;;;;;;;25.30;44.40;;;;;;1584415;74;1701;-63
2022/05/18 08:17:33;;;;;;;;;;;25.30;44.40;;;;;;1569050;74;810;-64
2022/05/18 08:19:35;;;;;;;;;;;25.30;44.50;;;;;;1581620;74;1573;-63
2022/05/18 08:21:38;;;;;;;;;;;25.20;44.50;;;;;;1566322;74;3062;-67
2022/05/18 08:23:40;;;;;;;;;;;25.20;44.60;;;;;;1540990;76;761;-64
2022/05/18 08:25:47;;;;;;;;;;;25.20;44.70;;;;;;1534379;76;692;-67
2022/05/18 08:27:47;;;;;;;;;;;25.20;44.60;;;;;;1526046;76;1052;-65
2022/05/18 08:29:48;;;;;;;;;;;25.10;44.60;;;;;;1536657;76;680;-66
2022/05/18 08:31:50;;;;;;;;;;;25.10;44.70;;;;;;1538311;76;1942;-67
2022/05/18 08:33:53;;;;;;;;;;;25.10;44.70;;;;;;1522076;76;1466;-67
2022/05/18 08:35:55;;;;;;;;;;;25.10;44.70;;;;;;1522967;76;642;-67
2022/05/18 08:37:57;;;;;;;;;;;25.20;44.70;;;;;;1523346;76;693;-67
2022/05/18 08:39:59;;;;;;;;;;;25.10;44.60;;;;;;1517803;76;695;-67
2022/05/18 08:42:01;;;;;;;;;;;25.10;44.70;;;;;;1538390;76;1129;-67
2022/05/18 08:44:03;;;;;;;;;;;25.20;44.70;;;;;;1540541;76;778;-68
2022/05/18 08:46:06;;;;;;;;;;;25.10;44.70;;;;;;1528920;76;681;-62
2022/05/18 08:48:10;;;;;;;;;;;25.10;44.60;;;;;;1524240;76;1336;-63
2022/05/18 08:50:13;;;;;;;;;;;25.20;44.70;;;;;;1532253;76;1000;-67
2022/05/18 08:52:25;;;;;;;;;;;25.30;44.50;;;;;;1531818;76;1949;-64
2022/05/18 08:54:44;;;;;;;;;;;25.30;44.50;;;;;;1537460;76;712;-66
2022/05/18 08:56:46;;;;;;;;;;;25.40;44.20;;;;;;1531495;76;679;-64
2022/05/18 08:58:52;;;;;;;;;;;25.30;42.50;;;;;;1532717;76;688;-67
2022/05/18 09:00:58;;;;;;;;;;;25.30;43.90;;;;;;1530128;76;1091;-65
2022/05/18 09:03:01;;;;;;;;;;;25.40;43.60;;;;;;1526603;76;1464;-66
2022/05/18 09:05:10;;;;;;;;;;;25.30;41.40;;;;;;1524121;76;1714;-62
2022/05/18 09:07:12;;;;;;;;;;;25.20;43.20;;;;;;1537513;76;1764;-65
2022/05/18 09:11:35;;;;;;;;;;;25.40;41.50;;;;;;1526220;76;1952;-65
2022/05/18 09:13:38;;;;;;;;;;;25.30;41.10;;;;;;1522561;76;738;-66
2022/05/18 09:15:53;;;;;;;;;;;25.30;40.10;;;;;;1521333;76;746;-63
2022/05/18 09:17:57;;;;;;;;;;;25.20;41.90;;;;;;1525213;76;666;-64
2022/05/18 09:20:04;;;;;;;;;;;25.20;41.70;;;;;;1540210;76;684;-64
2022/05/18 09:22:09;;;;;;;;;;;25.30;42.20;;;;;;1529070;75;2278;-65
2022/05/18 09:24:18;;;;;;;;;;;25.40;42.10;;;;;;1535792;76;2004;-64
2022/05/18 09:26:34;;;;;;;;;;;25.40;41.20;;;;;;1527531;76;1755;-65
2022/05/18 09:28:37;;;;;;;;;;;25.30;40.10;;;;;;1527087;76;682;-65
2022/05/18 09:30:48;;;;;;;;;;;25.30;40.20;;;;;;1526798;76;1479;-66
2022/05/18 09:33:08;;;;;;;;;;;25.30;41.00;;;;;;1526703;76;1917;-64
2022/05/18 09:35:24;;;;;;;;;;;25.30;40.70;;;;;;1526045;76;615;-66
2022/05/18 09:37:28;;;;;;;;;;;25.40;40.10;;;;;;1528562;76;1709;-64
2022/05/18 09:39:31;;;;;;;;;;;25.40;41.30;;;;;;1530246;76;738;-65
2022/05/18 09:41:35;;;;;;;;;;;25.40;40.90;;;;;;1524440;76;1140;-65
2022/05/18 09:43:46;;;;;;;;;;;25.40;40.70;;;;;;1526798;76;1711;-63
2022/05/18 09:45:48;;;;;;;;;;;25.50;40.20;;;;;;1524387;76;1728;-63
2022/05/18 09:47:52;;;;;;;;;;;25.50;39.70;;;;;;1528563;76;599;-63
2022/05/18 09:49:55;;;;;;;;;;;25.40;38.60;;;;;;1529515;76;660;-63
2022/05/18 09:51:56;;;;;;;;;;;25.40;37.60;;;;;;1518494;76;1951;-64
2022/05/18 09:53:59;;;;;;;;;;;25.40;37.50;;;;;;1519103;76;679;-64
2022/05/18 09:56:01;;;;;;;;;;;25.30;39.00;;;;;;1525830;76;686;-64
2022/05/18 09:58:04;;;;;;;;;;;25.30;38.10;;;;;;1525031;76;1505;-64
2022/05/18 10:00:07;;;;;;;;;;;25.40;39.70;;;;;;1543354;76;590;-65
2022/05/18 10:09:31;;;;;;;;;;;25.30;38.90;;;;;;1544560;76;1708;-65
2022/05/18 10:11:34;;;;;;;;;;;25.40;39.20;;;;;;1543966;76;1960;-64
2022/05/18 10:13:37;;;;;;;;;;;25.30;39.40;;;;;;1547570;76;1593;-64
2022/05/18 10:15:40;;;;;;;;;;;25.40;38.60;;;;;;1526802;76;810;-63
2022/05/18 10:17:44;;;;;;;;;;;25.30;38.50;;;;;;1540289;76;1712;-66
2022/05/18 10:19:47;;;;;;;;;;;25.40;39.70;;;;;;1534612;76;1641;-63
2022/05/18 10:21:56;;;;;;;;;;;25.30;38.40;;;;;;1534124;76;1694;-65
2022/05/18 10:23:59;;;;;;;;;;;25.40;39.20;;;;;;1526362;76;708;-64
2022/05/18 10:26:01;;;;;;;;;;;25.40;38.50;;;;;;1532167;76;721;-66
2022/05/18 10:28:04;;;;;;;;;;;25.40;38.20;;;;;;1526804;76;723;-64
2022/05/18 10:30:18;;;;;;;;;;;25.40;38.90;;;;;;1530359;76;725;-64
2022/05/18 10:32:22;;;;;;;;;;;25.40;39.20;;;;;;1519063;76;1950;-65
2022/05/18 10:34:28;;;;;;;;;;;25.30;39.10;;;;;;1534196;76;796;-65
2022/05/18 10:36:30;;;;;;;;;;;25.30;39.70;;;;;;1535018;76;912;-67
2022/05/18 10:38:32;;;;;;;;;;;25.30;39.50;;;;;;1527356;76;738;-67
2022/05/18 10:40:34;;;;;;;;;;;25.40;39.00;;;;;;1525275;76;1519;-65
2022/05/18 10:42:48;;;;;;;;;;;25.30;38.60;;;;;;1526225;76;1103;-66
2022/05/18 10:44:50;;;;;;;;;;;25.30;39.70;;;;;;1532650;76;767;-65
2022/05/18 10:46:52;;;;;;;;;;;25.30;39.40;;;;;;1542976;76;750;-65
2022/05/18 10:48:57;;;;;;;;;;;25.30;38.70;;;;;;1544874;76;780;-65
2022/05/18 10:51:01;;;;;;;;;;;25.30;39.30;;;;;;1546438;76;1195;-66
2022/05/18 10:53:10;;;;;;;;;;;25.30;39.40;;;;;;1530828;76;1916;-67
2022/05/18 10:55:17;;;;;;;;;;;25.40;39.20;;;;;;1534504;76;1540;-64
2022/05/18 10:57:19;;;;;;;;;;;25.30;39.30;;;;;;1537887;76;694;-64
2022/05/18 10:59:23;;;;;;;;;;;25.30;39.40;;;;;;1531806;76;731;-66
2022/05/18 11:01:32;;;;;;;;;;;25.40;39.00;;;;;;1533205;76;1138;-65
2022/05/18 11:03:42;;;;;;;;;;;25.40;39.20;;;;;;1529421;76;1936;-64
2022/05/18 11:05:45;;;;;;;;;;;25.30;38.30;;;;;;1528476;76;692;-64
2022/05/18 11:07:47;;;;;;;;;;;25.30;37.90;;;;;;1530675;76;702;-65
2022/05/18 11:09:49;;;;;;;;;;;25.30;39.00;;;;;;1525614;76;1430;-64
2022/05/18 11:11:52;;;;;;;;;;;25.40;38.60;;;;;;1534720;76;1941;-65
2022/05/18 11:14:04;;;;;;;;;;;25.20;38.60;;;;;;1530692;76;798;-64
2022/05/18 11:16:20;;;;;;;;;;;25.30;39.20;;;;;;1479964;79;1059;-65
2022/05/18 11:18:29;;;;;;;;;;;25.30;39.10;;;;;;1531687;76;975;-64
2022/05/18 11:20:39;;;;;;;;;;;25.30;38.20;;;;;;1530168;76;786;-64
2022/05/18 11:22:52;;;;;;;;;;;25.20;38.30;;;;;;1534160;76;1506;-64
2022/05/18 11:25:01;;;;;;;;;;;25.20;38.80;;;;;;1517382;76;1963;-63
2022/05/18 11:27:05;;;;;;;;;;;25.20;38.30;;;;;;1536504;76;1781;-64
2022/05/18 11:29:17;;;;;;;;;;;25.30;39.00;;;;;;1533389;76;875;-64
2022/05/18 11:31:20;;;;;;;;;;;25.30;38.90;;;;;;1525405;76;2005;-65
2022/05/18 11:33:33;;;;;;;;;;;25.20;38.90;;;;;;1527977;76;1933;-65
2022/05/18 11:35:53;;;;;;;;;;;25.20;39.30;;;;;;1498335;78;1059;-64
2022/05/18 11:38:05;;;;;;;;;;;25.20;39.30;;;;;;1528133;76;1514;-65
2022/05/18 11:40:09;;;;;;;;;;;25.20;39.40;;;;;;1530701;76;2020;-64
2022/05/18 11:42:15;;;;;;;;;;;25.10;39.60;;;;;;1535997;76;1135;-65
2022/05/18 11:44:19;;;;;;;;;;;25.10;39.40;;;;;;1529600;76;684;-65
2022/05/18 11:46:41;;;;;;;;;;;25.00;39.10;;;;;;1528957;76;1228;-66
2022/05/18 11:48:47;;;;;;;;;;;25.10;39.80;;;;;;1528437;76;718;-64
2022/05/18 11:50:50;;;;;;;;;;;25.10;39.00;;;;;;1529635;76;1917;-64
2022/05/18 11:53:09;;;;;;;;;;;25.10;39.50;;;;;;1532768;76;1954;-64
2022/05/18 11:55:20;;;;;;;;;;;25.10;39.70;;;;;;1531047;76;1794;-65
2022/05/18 11:57:41;;;;;;;;;;;25.10;39.80;;;;;;1534976;76;673;-67
2022/05/18 11:59:57;;;;;;;;;;;25.10;39.80;;;;;;1523364;76;708;-66
2022/05/18 12:02:12;;;;;;;;;;;25.10;39.70;;;;;;1528845;76;1953;-66
2022/05/18 12:04:12;;;;;;;;;;;25.20;39.70;;;;;;1532937;76;1858;-66
2022/05/18 12:06:16;;;;;;;;;;;25.10;39.10;;;;;;1535203;76;1712;-65
2022/05/18 12:08:27;;;;;;;;;;;25.10;39.60;;;;;;1537656;76;809;-66
2022/05/18 12:10:33;;;;;;;;;;;25.10;39.70;;;;;;1529621;76;756;-66
2022/05/18 12:12:40;;;;;;;;;;;25.00;39.50;;;;;;1534820;76;1937;-66
2022/05/18 12:14:43;;;;;;;;;;;25.00;39.10;;;;;;1532659;76;1049;-63
2022/05/18 12:16:59;;;;;;;;;;;25.00;39.20;;;;;;1523778;76;1735;-64
2022/05/18 12:19:15;;;;;;;;;;;25.00;38.90;;;;;;1523162;76;1442;-63
2022/05/18 12:21:18;;;;;;;;;;;25.00;39.40;;;;;;1463403;76;1180;-63
2022/05/18 12:23:21;;;;;;;;;;;25.00;39.30;;;;;;1522316;76;779;-64
2022/05/18 12:25:24;;;;;;;;;;;25.00;39.20;;;;;;1524892;76;707;-63
2022/05/18 12:27:26;;;;;;;;;;;25.00;39.30;;;;;;1527790;76;697;-64
2022/05/18 12:29:28;;;;;;;;;;;25.00;39.50;;;;;;1523676;76;812;-65
2022/05/18 12:31:30;;;;;;;;;;;25.00;39.20;;;;;;1536644;76;1158;-64
2022/05/18 12:33:35;;;;;;;;;;;25.00;38.50;;;;;;1532774;76;1929;-64
2022/05/18 12:35:55;;;;;;;;;;;25.00;38.90;;;;;;1530330;76;794;-64
2022/05/18 12:38:08;;;;;;;;;;;25.00;39.30;;;;;;1525572;76;833;-64
2022/05/18 12:40:18;;;;;;;;;;;25.00;38.20;;;;;;1530499;76;1903;-64